KEGE/EGE METAR and TAF weather

Enter ICAO airport designator
Station Type Date Time Source
KEGE METAR 2019/12/13 00:56 UTC NOAA

KEGE 130056Z 29005KT 5SM -SN BR FEW032 BKN043 OVC055 M01/M02 A3015 RMK AO2 RAB06E27SNB27 SLP253 T10061017 PNO $


Station Type Date Time Source
KEGE Decoded METAR 2019/12/13 00:56 UTC NOAA

Eagle County Regional, CO, United States (KEGE) 39-39N 106-55W
Dec 12, 2019 - 07:56 PM EST / 2019.12.13 0056 UTC
Wind: from the WNW (290 degrees) at 6 MPH (5 KT):0
Visibility: 5 mile(s):0
Sky conditions: overcast
Weather: light snow; mist
Temperature: 30.9 F (-0.6 C)
Windchill: 24 F (-4 C):1
Dew Point: 28.9 F (-1.7 C)
Relative Humidity: 92%
Pressure (altimeter): 30.15 in. Hg (1020 hPa)
ob: KEGE 130056Z 29005KT 5SM -SN BR FEW032 BKN043 OVC055 M01/M02 A3015 RMK AO2 RAB06E27SNB27 SLP253 T10061017 PNO
cycle: 1

Station Type Date Time Source
KEGE TAF 2019/12/12 20:18 UTC NOAA

TAF
AMD KEGE 122014Z 1220/1318 25006KT P6SM OVC050
FM130000 23008KT P6SM VCSH SCT025 BKN035
FM130900 23008KT 2SM BR VCSH SCT025 OVC035
FM131200 23005KT 3SM BR SCT020 BKN030
FM131600 25005KT P6SM SCT020 BKN030

Example: see airport list